Votaw, Texas
Current Conditions -  °F | °C
As of 8:35 PM on Friday 28 Nov 2014 (Local Time) from K6R3 Reporting Station
Clear Clear  
Wind Chill: 57°   Ceiling: Unl
Heat Index: 57°   Visibility: 7mi
Dew Point: 55°   Wind: 5mph
Humidity: 94%   Direction: 160°SSE
Pressure: 30.16"   Gusts: NA
Location:  30.44°N, 94.67°W
Report Text: K6R3 290235Z AUTO 16004KT 7SM CLR 14/13 A3016 RMK AO2 T01380128
Loading
Personal Weather Stations






























Interactive Weather Map New forecast layout! Learn more

10-Day Weather Forecast

Advertisements
Track Severe Weather on mobile